Archival Weather

Los Angeles Intl

Los Angeles, California (KLAX)

Report from: Thursday, September 21, 2023 2:53 PM PDT
Current time: Saturday, March 2, 2024 1:50 AM PST

Current weather – Weather history – Daily summaries
Weather forecast

Temperature21.7°C (71.1°F)
Dew point15.0°C (59.0°F)
Winds 11 kts (5.7 m/s, 12.7 mph) West-Southwest (250°)
Visibility10 mi. (16.1 km)
Clouds Few clouds 2,100 ft. (640 m)
Few clouds 4,300 ft. (1,311 m)
Altimeter29.94 in.Hg (1014 mB)
Relative humidity66 %
Density altitude1,009 ft. (307 m)
Sea-level pressure101.4 kPa (1014 mB, 29.93 in.Hg)
Remarks Automated weather observing station with precipitation discriminator
Flight conditions Visual Meteorological Conditions
Raw dataKLAX 212153Z 25011KT 10SM FEW021 FEW043 22/15 A2994 RMK AO2 SLP135 T02170150
An error has occurred. This application may no longer respond until reloaded. Reload 🗙